createdAt,value
2017-02-10T00:00:14.122Z,720
2017-02-10T00:01:14.653Z,688
2017-02-10T00:02:15.184Z,720
2017-02-10T00:03:15.864Z,704
2017-02-10T00:04:16.248Z,720
2017-02-10T00:05:16.929Z,704
2017-02-10T00:06:17.308Z,752
2017-02-10T00:07:17.841Z,720
2017-02-10T00:08:18.373Z,704
2017-02-10T00:09:19.055Z,704
2017-02-10T00:10:19.436Z,704
2017-02-10T00:11:19.968Z,752
2017-02-10T00:12:20.496Z,704
2017-02-10T00:13:21.026Z,720
2017-02-10T00:14:21.563Z,720
2017-02-10T00:15:22.085Z,720
2017-02-10T00:16:22.791Z,704
2017-02-10T00:17:23.300Z,736
2017-02-10T00:18:23.683Z,800
2017-02-10T00:19:24.212Z,896
2017-02-10T00:20:24.751Z,800
2017-02-10T00:21:25.269Z,800
2017-02-10T00:22:25.802Z,736
2017-02-10T00:23:26.335Z,800
2017-02-10T00:24:27.011Z,736
2017-02-10T00:25:27.398Z,784
2017-02-10T00:26:28.077Z,736
2017-02-10T00:27:28.463Z,848
2017-02-10T00:28:29.142Z,752
2017-02-10T00:29:29.527Z,720
2017-02-10T00:30:30.063Z,704
2017-02-10T00:31:30.747Z,704
2017-02-10T00:32:31.137Z,704
2017-02-10T00:33:31.666Z,704
2017-02-10T00:34:32.198Z,704
2017-02-10T00:35:32.729Z,704
2017-02-10T00:36:33.260Z,688
2017-02-10T00:37:33.938Z,672
2017-02-10T00:38:34.461Z,720
2017-02-10T00:39:34.845Z,704
2017-02-10T00:40:35.373Z,688
2017-02-10T00:41:35.903Z,832
2017-02-10T00:42:36.584Z,784
2017-02-10T00:43:36.966Z,720
2017-02-10T00:44:37.494Z,704
2017-02-10T00:45:38.026Z,784
2017-02-10T00:46:38.557Z,720
2017-02-10T00:47:39.086Z,736
2017-02-10T00:48:39.619Z,736
2017-02-10T00:49:40.297Z,800
2017-02-10T00:50:40.676Z,752
2017-02-10T00:51:41.207Z,784
2017-02-10T00:52:41.887Z,736
2017-02-10T00:53:42.305Z,720
2017-02-10T00:54:42.801Z,736
2017-02-10T00:55:43.486Z,720
2017-02-10T00:56:44.009Z,720
2017-02-10T00:57:44.390Z,768
2017-02-10T00:58:44.925Z,720
2017-02-10T00:59:45.602Z,720
2017-02-10T01:00:45.986Z,720
2017-02-10T01:01:46.513Z,704
2017-02-10T01:02:47.048Z,704
2017-02-10T01:03:47.577Z,720
2017-02-10T01:04:48.117Z,704
2017-02-10T01:05:48.785Z,704
2017-02-10T01:06:49.167Z,704
2017-02-10T01:07:49.697Z,704
2017-02-10T01:08:50.236Z,720
2017-02-10T01:09:50.764Z,720
2017-02-10T01:10:51.438Z,704
2017-02-10T01:11:51.825Z,704
2017-02-10T01:12:52.363Z,688
2017-02-10T01:13:53.046Z,688
2017-02-10T01:14:53.437Z,720
2017-02-10T01:15:53.994Z,704
2017-02-10T01:16:54.649Z,704
2017-02-10T01:17:55.036Z,704
2017-02-10T01:18:55.567Z,704
2017-02-10T01:19:56.246Z,688
2017-02-10T01:20:56.631Z,736
2017-02-10T01:21:57.304Z,704
2017-02-10T01:22:57.834Z,736
2017-02-10T01:23:58.369Z,720
2017-02-10T01:24:58.752Z,720
2017-02-10T01:25:59.274Z,704
2017-02-10T01:26:59.810Z,768
2017-02-10T01:28:00.341Z,784
2017-02-10T01:29:00.869Z,752
2017-02-10T01:30:01.400Z,784
2017-02-10T01:31:01.935Z,736
2017-02-10T01:32:02.609Z,752
2017-02-10T01:33:02.992Z,736
2017-02-10T01:34:03.531Z,720
2017-02-10T01:35:04.054Z,736
2017-02-10T01:36:04.736Z,784
2017-02-10T01:37:05.116Z,768
2017-02-10T01:38:05.649Z,736
2017-02-10T01:39:06.182Z,704
2017-02-10T01:40:06.711Z,720
2017-02-10T01:41:07.239Z,704
2017-02-10T01:42:07.768Z,704
2017-02-10T01:43:08.298Z,704
2017-02-10T01:44:08.982Z,752
2017-02-10T01:45:09.365Z,784
2017-02-10T01:46:10.038Z,752
2017-02-10T01:47:10.567Z,752
2017-02-10T01:48:11.101Z,752
2017-02-10T01:49:11.483Z,736
2017-02-10T01:50:12.014Z,704
2017-02-10T01:51:12.545Z,704
2017-02-10T01:52:13.231Z,704
2017-02-10T01:53:13.610Z,704
2017-02-10T01:54:14.141Z,720
2017-02-10T01:55:14.676Z,704
2017-02-10T01:56:15.217Z,704
2017-02-10T01:57:15.749Z,704
2017-02-10T01:58:16.319Z,688
2017-02-10T01:59:16.815Z,688
2017-02-10T02:00:17.499Z,672
2017-02-10T02:01:17.880Z,672
2017-02-10T02:02:18.408Z,704
2017-02-10T02:03:18.955Z,720
2017-02-10T02:04:19.622Z,704
2017-02-10T02:05:20.014Z,736
2017-02-10T02:06:20.692Z,720
2017-02-10T02:07:21.070Z,704
2017-02-10T02:08:21.599Z,720
2017-02-10T02:09:22.137Z,704
2017-02-10T02:10:22.809Z,720
2017-02-10T02:11:23.201Z,720
2017-02-10T02:12:23.871Z,688
2017-02-10T02:13:24.250Z,752
2017-02-10T02:14:24.783Z,736
2017-02-10T02:15:25.321Z,704
2017-02-10T02:16:26.143Z,704
2017-02-10T02:17:26.380Z,736
2017-02-10T02:18:27.056Z,720
2017-02-10T02:19:27.439Z,720
2017-02-10T02:20:27.974Z,720
2017-02-10T02:22:29.027Z,720
2017-02-10T02:23:29.564Z,704
2017-02-10T02:24:30.244Z,736
2017-02-10T02:25:30.624Z,832
2017-02-10T02:26:31.304Z,816
2017-02-10T02:27:31.692Z,752
2017-02-10T02:28:32.367Z,736
2017-02-10T02:29:32.749Z,720
2017-02-10T02:30:33.428Z,720
2017-02-10T02:31:33.812Z,720
2017-02-10T02:32:34.349Z,720
2017-02-10T02:33:34.877Z,720
2017-02-10T02:34:35.400Z,720
2017-02-10T02:35:35.929Z,704
2017-02-10T02:36:36.499Z,736
2017-02-10T02:37:37.000Z,720
2017-02-10T02:38:37.533Z,720
2017-02-10T02:39:38.067Z,704
2017-02-10T02:40:38.604Z,736
2017-02-10T02:41:39.136Z,704
2017-02-10T02:42:39.663Z,704
2017-02-10T02:43:40.198Z,688
2017-02-10T02:44:40.727Z,688
2017-02-10T02:45:41.257Z,688
2017-02-10T02:46:41.788Z,688
2017-02-10T02:47:42.322Z,688
2017-02-10T02:48:43.002Z,688
2017-02-10T02:49:43.385Z,688
2017-02-10T02:50:43.923Z,704
2017-02-10T02:51:44.450Z,720
2017-02-10T02:52:44.975Z,704
2017-02-10T02:53:45.510Z,704
2017-02-10T02:54:46.043Z,704
2017-02-10T02:55:46.756Z,704
2017-02-10T02:56:47.105Z,704
2017-02-10T02:57:47.634Z,688
2017-02-10T02:58:48.171Z,720
2017-02-10T02:59:48.695Z,704
2017-02-10T03:00:49.234Z,704
2017-02-10T03:01:49.759Z,688
2017-02-10T03:02:50.288Z,752
2017-02-10T03:03:50.823Z,720
2017-02-10T03:04:51.352Z,704
2017-02-10T03:05:51.884Z,704
2017-02-10T03:06:52.559Z,720
2017-02-10T03:07:52.943Z,704
2017-02-10T03:08:53.471Z,720
2017-02-10T03:09:53.998Z,768
2017-02-10T03:10:54.676Z,736
2017-02-10T03:11:55.061Z,720
2017-02-10T03:12:55.591Z,704
2017-02-10T03:13:56.125Z,720
2017-02-10T03:14:56.802Z,720
2017-02-10T03:15:57.185Z,704
2017-02-10T03:16:57.865Z,704
2017-02-10T03:17:58.253Z,704
2017-02-10T03:18:58.781Z,720
2017-02-10T03:19:59.315Z,720
2017-02-10T03:20:59.850Z,704
2017-02-10T03:22:00.386Z,720
2017-02-10T03:23:00.915Z,720
2017-02-10T03:24:01.452Z,704
2017-02-10T03:25:02.125Z,720
2017-02-10T03:26:02.510Z,704
2017-02-10T03:27:03.036Z,736
2017-02-10T03:28:03.576Z,720
2017-02-10T03:29:04.256Z,720
2017-02-10T03:30:04.645Z,768
2017-02-10T03:31:05.168Z,768
2017-02-10T03:32:05.844Z,720
2017-02-10T03:33:06.379Z,720
2017-02-10T03:34:06.763Z,720
2017-02-10T03:35:07.289Z,720
2017-02-10T03:36:07.966Z,720
2017-02-10T03:37:08.503Z,720
2017-02-10T03:38:08.885Z,704
2017-02-10T03:39:09.564Z,704
2017-02-10T03:40:09.944Z,720
2017-02-10T03:41:10.471Z,720
2017-02-10T03:42:11.008Z,704
2017-02-10T03:43:11.685Z,720
2017-02-10T03:44:12.068Z,720
2017-02-10T03:45:12.600Z,752
2017-02-10T03:46:13.132Z,752
2017-02-10T03:47:13.812Z,720
2017-02-10T03:48:14.197Z,768
2017-02-10T03:49:14.733Z,784
2017-02-10T03:50:15.260Z,768
2017-02-10T03:51:15.793Z,736
2017-02-10T03:52:16.321Z,736
2017-02-10T03:53:16.854Z,736
2017-02-10T03:54:17.386Z,752
2017-02-10T03:55:18.063Z,736
2017-02-10T03:56:18.445Z,736
2017-02-10T03:57:18.973Z,736
2017-02-10T03:58:19.504Z,720
2017-02-10T03:59:20.038Z,736
2017-02-10T04:00:20.564Z,768
2017-02-10T04:01:21.250Z,736
2017-02-10T04:02:21.636Z,720
2017-02-10T04:03:22.170Z,720
2017-02-10T04:04:22.715Z,736
2017-02-10T04:05:23.237Z,752
2017-02-10T04:06:23.786Z,704
2017-02-10T04:07:24.301Z,752
2017-02-10T04:08:24.830Z,800
2017-02-10T04:09:25.386Z,768
2017-02-10T04:10:25.893Z,768
2017-02-10T04:11:26.418Z,768
2017-02-10T04:12:26.952Z,816
2017-02-10T04:13:27.479Z,784
2017-02-10T04:14:28.009Z,768
2017-02-10T04:15:28.537Z,800
2017-02-10T04:16:29.243Z,832
2017-02-10T04:17:29.602Z,800
2017-02-10T04:18:30.135Z,752
2017-02-10T04:19:30.812Z,816
2017-02-10T04:20:31.341Z,768
2017-02-10T04:21:31.878Z,848
2017-02-10T04:22:32.259Z,800
2017-02-10T04:23:32.789Z,752
2017-02-10T04:24:33.319Z,736
2017-02-10T04:25:33.852Z,752
2017-02-10T04:26:34.384Z,736
2017-02-10T04:27:34.915Z,736
2017-02-10T04:28:35.447Z,720
2017-02-10T04:29:35.978Z,816
2017-02-10T04:30:36.653Z,784
2017-02-10T04:31:37.038Z,752
2017-02-10T04:32:37.717Z,768
2017-02-10T04:33:38.103Z,736
2017-02-10T04:34:38.637Z,752
2017-02-10T04:35:39.316Z,720
2017-02-10T04:36:39.698Z,752
2017-02-10T04:37:40.229Z,736
2017-02-10T04:38:40.759Z,752
2017-02-10T04:39:41.298Z,736
2017-02-10T04:40:41.821Z,752
2017-02-10T04:41:42.349Z,736
2017-02-10T04:42:42.881Z,720
2017-02-10T04:43:43.565Z,720
2017-02-10T04:44:43.947Z,720
2017-02-10T04:45:44.478Z,720
2017-02-10T04:46:45.012Z,736
2017-02-10T04:47:45.541Z,720
2017-02-10T04:48:46.076Z,720
2017-02-10T04:49:46.639Z,720
2017-02-10T04:50:47.138Z,704
2017-02-10T04:51:47.663Z,736
2017-02-10T04:52:48.194Z,752
2017-02-10T04:53:48.876Z,720
2017-02-10T04:54:49.257Z,720
2017-02-10T04:55:49.789Z,720
2017-02-10T04:56:50.459Z,720
2017-02-10T04:57:50.843Z,736
2017-02-10T04:58:51.373Z,720
2017-02-10T04:59:52.053Z,720
2017-02-10T05:00:52.433Z,752
2017-02-10T05:01:52.964Z,736
2017-02-10T05:02:53.497Z,736
2017-02-10T05:03:54.026Z,768
2017-02-10T05:04:54.555Z,784
2017-02-10T05:05:55.104Z,768
2017-02-10T05:06:55.624Z,736
2017-02-10T05:07:56.327Z,720
2017-02-10T05:08:56.679Z,720
2017-02-10T05:09:57.221Z,720
2017-02-10T05:10:57.742Z,736
2017-02-10T05:11:58.269Z,768
2017-02-10T05:12:58.803Z,752
2017-02-10T05:13:59.328Z,736
2017-02-10T05:14:59.859Z,704
2017-02-10T05:16:00.392Z,720
2017-02-10T05:17:01.066Z,736
2017-02-10T05:18:01.447Z,784
2017-02-10T05:19:02.127Z,752
2017-02-10T05:20:02.511Z,784
2017-02-10T05:21:03.045Z,832
2017-02-10T05:22:03.581Z,800
2017-02-10T05:23:04.106Z,768
2017-02-10T05:24:04.785Z,864
2017-02-10T05:25:05.182Z,848
2017-02-10T05:26:05.710Z,768
2017-02-10T05:27:06.244Z,800
2017-02-10T05:28:06.929Z,832
2017-02-10T05:29:07.315Z,848
2017-02-10T05:30:07.886Z,784
2017-02-10T05:31:08.378Z,768
2017-02-10T05:32:08.928Z,752
2017-02-10T05:33:09.437Z,752
2017-02-10T05:34:09.970Z,752
2017-02-10T05:35:10.501Z,768
2017-02-10T05:36:11.178Z,736
2017-02-10T05:37:11.565Z,752
2017-02-10T05:38:12.086Z,752
2017-02-10T05:39:12.761Z,736
2017-02-10T05:40:13.152Z,800
2017-02-10T05:41:13.681Z,768
2017-02-10T05:42:14.206Z,784
2017-02-10T05:43:14.739Z,800
2017-02-10T05:44:15.292Z,768
2017-02-10T05:45:15.798Z,800
2017-02-10T05:46:16.329Z,768
2017-02-10T05:47:16.862Z,768
2017-02-10T05:48:17.390Z,768
2017-02-10T05:49:17.927Z,768
2017-02-10T05:50:18.457Z,784
2017-02-10T05:51:18.988Z,752
2017-02-10T05:52:19.519Z,784
2017-02-10T05:53:20.194Z,832
2017-02-10T05:54:20.616Z,832
2017-02-10T05:55:21.251Z,928
2017-02-10T05:56:21.789Z,1008
2017-02-10T05:57:22.171Z,944
2017-02-10T05:58:22.723Z,960
2017-02-10T05:59:23.230Z,896
2017-02-10T06:00:23.761Z,896
2017-02-10T06:01:24.298Z,784
2017-02-10T06:02:24.827Z,768
2017-02-10T06:03:25.503Z,816
2017-02-10T06:04:25.896Z,864
2017-02-10T06:05:26.422Z,816
2017-02-10T06:06:26.952Z,784
2017-02-10T06:07:27.485Z,768
2017-02-10T06:08:28.011Z,736
2017-02-10T06:09:28.554Z,816
2017-02-10T06:10:29.239Z,768
2017-02-10T06:11:29.621Z,752
2017-02-10T06:12:30.305Z,752
2017-02-10T06:13:30.690Z,800
2017-02-10T06:14:31.223Z,848
2017-02-10T06:15:31.754Z,768
2017-02-10T06:16:32.443Z,736
2017-02-10T06:17:32.823Z,752
2017-02-10T06:18:33.348Z,784
2017-02-10T06:19:33.879Z,752
2017-02-10T06:20:34.558Z,800
2017-02-10T06:21:34.937Z,896
2017-02-10T06:22:35.474Z,816
2017-02-10T06:23:36.001Z,784
2017-02-10T06:24:36.533Z,768
2017-02-10T06:25:37.062Z,768
2017-02-10T06:26:37.591Z,896
2017-02-10T06:27:38.269Z,784
2017-02-10T06:28:38.653Z,768
2017-02-10T06:29:39.183Z,784
2017-02-10T06:30:39.709Z,752
2017-02-10T06:31:40.245Z,736
2017-02-10T06:32:40.921Z,768
2017-02-10T06:33:41.302Z,752
2017-02-10T06:34:41.833Z,752
2017-02-10T06:35:42.368Z,816
2017-02-10T06:36:43.041Z,768
2017-02-10T06:37:43.432Z,768
2017-02-10T06:38:43.955Z,848
2017-02-10T06:39:44.481Z,880
2017-02-10T06:40:45.011Z,784
2017-02-10T06:41:45.685Z,768
2017-02-10T06:42:46.219Z,752
2017-02-10T06:43:46.601Z,752
2017-02-10T06:44:47.129Z,768
2017-02-10T06:45:47.663Z,752
2017-02-10T06:46:48.339Z,752
2017-02-10T06:47:48.723Z,752
2017-02-10T06:48:49.402Z,752
2017-02-10T06:49:49.784Z,784
2017-02-10T06:50:50.316Z,800
2017-02-10T06:51:50.850Z,816
2017-02-10T06:52:51.385Z,768
2017-02-10T06:53:51.921Z,752
2017-02-10T06:54:52.605Z,736
2017-02-10T06:55:53.129Z,768
2017-02-10T06:56:53.665Z,784
2017-02-10T06:57:54.044Z,800
2017-02-10T06:58:54.612Z,896
2017-02-10T06:59:55.255Z,992
2017-02-10T07:00:55.663Z,816
2017-02-10T07:01:56.172Z,816
2017-02-10T07:02:56.702Z,784
2017-02-10T07:03:57.237Z,768
2017-02-10T07:04:57.758Z,736
2017-02-10T07:05:58.291Z,800
2017-02-10T07:06:58.830Z,816
2017-02-10T07:07:59.359Z,784
2017-02-10T07:08:59.905Z,816
2017-02-10T07:10:00.419Z,768
2017-02-10T07:11:00.956Z,768
2017-02-10T07:12:01.481Z,752
2017-02-10T07:13:02.014Z,752
2017-02-10T07:14:02.547Z,736
2017-02-10T07:15:03.079Z,720
2017-02-10T07:16:03.751Z,736
2017-02-10T07:17:04.137Z,736
2017-02-10T07:18:04.668Z,736
2017-02-10T07:19:05.350Z,768
2017-02-10T07:20:05.729Z,752
2017-02-10T07:21:06.261Z,800
2017-02-10T07:22:06.793Z,768
2017-02-10T07:23:07.320Z,784
2017-02-10T07:24:07.855Z,800
2017-02-10T07:25:08.534Z,752
2017-02-10T07:26:08.916Z,752
2017-02-10T07:27:09.444Z,752
2017-02-10T07:28:09.980Z,752
2017-02-10T07:29:10.539Z,768
2017-02-10T07:30:11.038Z,752
2017-02-10T07:31:11.717Z,768
2017-02-10T07:32:12.101Z,752
2017-02-10T07:33:12.664Z,752
2017-02-10T07:34:13.168Z,736
2017-02-10T07:35:13.890Z,736
2017-02-10T07:36:14.237Z,720
2017-02-10T07:37:14.766Z,736
2017-02-10T07:38:15.299Z,768
2017-02-10T07:39:15.859Z,784
2017-02-10T07:40:16.360Z,736
2017-02-10T07:41:17.039Z,752
2017-02-10T07:42:17.418Z,736
2017-02-10T07:43:17.950Z,784
2017-02-10T07:44:18.481Z,784
2017-02-10T07:45:19.025Z,800
2017-02-10T07:46:19.544Z,784
2017-02-10T07:47:20.071Z,768
2017-02-10T07:48:20.601Z,800
2017-02-10T07:49:21.128Z,800
2017-02-10T07:50:21.664Z,816
2017-02-10T07:51:22.196Z,784
2017-02-10T07:52:22.725Z,800
2017-02-10T07:53:23.254Z,752
2017-02-10T07:54:23.785Z,784
2017-02-10T07:55:24.316Z,768
2017-02-10T07:56:24.994Z,752
2017-02-10T07:57:25.529Z,800
2017-02-10T07:58:25.914Z,768
2017-02-10T07:59:26.445Z,784
2017-02-10T08:00:26.979Z,800
2017-02-10T08:01:27.508Z,784
2017-02-10T08:02:28.037Z,848
2017-02-10T08:03:28.617Z,896
2017-02-10T08:04:29.101Z,800
2017-02-10T08:05:29.662Z,784
2017-02-10T08:06:30.155Z,768
2017-02-10T08:07:30.684Z,800
2017-02-10T08:08:31.216Z,784
2017-02-10T08:09:31.751Z,768
2017-02-10T08:10:32.280Z,768
2017-02-10T08:11:32.809Z,752
2017-02-10T08:12:33.337Z,768
2017-02-10T08:13:33.866Z,752
2017-02-10T08:14:34.566Z,736
2017-02-10T08:15:35.082Z,736
2017-02-10T08:16:35.470Z,736
2017-02-10T08:17:36.007Z,752
2017-02-10T08:18:36.536Z,784
2017-02-10T08:19:37.065Z,816
2017-02-10T08:20:37.597Z,832
2017-02-10T08:21:38.125Z,816
2017-02-10T08:22:38.654Z,800
2017-02-10T08:23:39.190Z,784
2017-02-10T08:24:39.720Z,752
2017-02-10T08:25:40.256Z,800
2017-02-10T08:26:40.784Z,800
2017-02-10T08:27:41.313Z,784
2017-02-10T08:28:41.839Z,848
2017-02-10T08:29:42.366Z,880
2017-02-10T08:30:42.900Z,896
2017-02-10T08:31:43.581Z,816
2017-02-10T08:32:43.963Z,768
2017-02-10T08:33:44.488Z,784
2017-02-10T08:34:45.025Z,752
2017-02-10T08:35:45.702Z,768
2017-02-10T08:36:46.080Z,800
2017-02-10T08:37:46.759Z,816
2017-02-10T08:38:47.146Z,800
2017-02-10T08:39:47.670Z,784
2017-02-10T08:40:48.206Z,752
2017-02-10T08:41:48.733Z,768
2017-02-10T08:42:49.268Z,768
2017-02-10T08:43:49.794Z,768
2017-02-10T08:44:50.326Z,752
2017-02-10T08:45:50.861Z,800
2017-02-10T08:46:51.392Z,768
2017-02-10T08:47:52.069Z,832
2017-02-10T08:48:52.450Z,816
2017-02-10T08:49:52.978Z,784
2017-02-10T08:50:53.515Z,976
2017-02-10T08:51:54.046Z,880
2017-02-10T08:52:54.576Z,816
2017-02-10T08:53:55.440Z,1024
2017-02-10T08:54:55.928Z,864
2017-02-10T08:55:56.166Z,832
2017-02-10T08:56:56.699Z,784
2017-02-10T08:57:57.236Z,848
2017-02-10T08:58:57.773Z,800
2017-02-10T08:59:58.455Z,816
2017-02-10T09:00:58.839Z,816
2017-02-10T09:01:59.371Z,784
2017-02-10T09:03:00.043Z,848
2017-02-10T09:04:00.576Z,896
2017-02-10T09:05:00.956Z,816
2017-02-10T09:06:01.491Z,816
2017-02-10T09:07:02.160Z,880
2017-02-10T09:08:02.549Z,928
2017-02-10T09:09:03.219Z,960
2017-02-10T09:10:03.756Z,896
2017-02-10T09:11:04.137Z,864
2017-02-10T09:12:04.666Z,832
2017-02-10T09:13:05.200Z,816
2017-02-10T09:14:05.734Z,864
2017-02-10T09:15:06.408Z,848
2017-02-10T09:16:06.944Z,896
2017-02-10T09:17:07.324Z,800
2017-02-10T09:18:08.004Z,896
2017-02-10T09:19:08.383Z,848
2017-02-10T09:20:08.938Z,896
2017-02-10T09:21:09.445Z,832
2017-02-10T09:22:10.001Z,1008
2017-02-10T09:23:10.506Z,912
2017-02-10T09:24:11.183Z,848
2017-02-10T09:25:11.708Z,848
2017-02-10T09:26:12.241Z,880
2017-02-10T09:27:12.623Z,928
2017-02-10T09:28:13.158Z,992
2017-02-10T09:29:13.681Z,832
2017-02-10T09:30:14.211Z,848
2017-02-10T09:31:14.887Z,832
2017-02-10T09:32:15.274Z,832
2017-02-10T09:33:15.807Z,816
2017-02-10T09:34:16.339Z,880
2017-02-10T09:35:16.867Z,832
2017-02-10T09:36:17.550Z,816
2017-02-10T09:37:17.927Z,944
2017-02-10T09:38:18.461Z,880
2017-02-10T09:39:18.998Z,896
2017-02-10T09:40:19.526Z,816
2017-02-10T09:41:20.065Z,880
2017-02-10T09:42:20.595Z,960
2017-02-10T09:43:21.321Z,832
2017-02-10T09:44:21.813Z,768
2017-02-10T09:45:22.342Z,848
2017-02-10T09:46:22.721Z,928
2017-02-10T09:47:23.259Z,992
2017-02-10T09:48:23.786Z,864
2017-02-10T09:49:24.317Z,832
2017-02-10T09:50:24.844Z,816
2017-02-10T09:51:25.372Z,784
2017-02-10T09:52:25.899Z,816
2017-02-10T09:53:26.435Z,832
2017-02-10T09:54:26.960Z,800
2017-02-10T09:55:27.495Z,880
2017-02-10T09:57:28.558Z,784
2017-02-10T09:58:29.084Z,784
2017-02-10T09:59:29.624Z,784
2017-02-10T10:00:30.303Z,768
2017-02-10T10:01:30.689Z,768
2017-02-10T10:02:31.225Z,752
2017-02-10T10:03:31.747Z,752
2017-02-10T10:04:32.313Z,752
2017-02-10T10:05:32.814Z,768
2017-02-10T10:06:33.485Z,768
2017-02-10T10:07:33.869Z,832
2017-02-10T10:08:34.399Z,992
2017-02-10T10:09:35.073Z,816
2017-02-10T10:10:35.456Z,832
2017-02-10T10:11:35.988Z,784
2017-02-10T10:12:36.515Z,784
2017-02-10T10:13:37.043Z,816
2017-02-10T10:15:38.109Z,752
2017-02-10T10:16:38.636Z,784
2017-02-10T10:17:39.165Z,784
2017-02-10T10:18:39.693Z,800
2017-02-10T10:19:40.229Z,784
2017-02-10T10:20:40.761Z,784
2017-02-10T10:21:41.302Z,800
2017-02-10T10:22:41.830Z,784
2017-02-10T10:23:42.367Z,768
2017-02-10T10:24:43.081Z,752
2017-02-10T10:25:43.433Z,784
2017-02-10T10:26:43.966Z,784
2017-02-10T10:27:44.498Z,768
2017-02-10T10:28:45.028Z,880
2017-02-10T10:29:45.703Z,816
2017-02-10T10:30:46.089Z,848
2017-02-10T10:31:46.763Z,816
2017-02-10T10:32:47.296Z,784
2017-02-10T10:33:47.680Z,784
2017-02-10T10:34:48.355Z,848
2017-02-10T10:35:48.737Z,784
2017-02-10T10:36:49.417Z,816
2017-02-10T10:37:49.803Z,784
2017-02-10T10:38:50.329Z,752
2017-02-10T10:39:50.858Z,816
2017-02-10T10:40:51.538Z,864
2017-02-10T10:41:51.919Z,800
2017-02-10T10:42:52.448Z,800
2017-02-10T10:43:52.979Z,800
2017-02-10T10:44:53.507Z,784
2017-02-10T10:45:54.192Z,976
2017-02-10T10:46:54.574Z,896
2017-02-10T10:47:55.112Z,816
2017-02-10T10:48:55.671Z,816
2017-02-10T10:49:56.168Z,784
2017-02-10T10:50:56.697Z,784
2017-02-10T10:51:57.227Z,768
2017-02-10T10:52:57.909Z,784
2017-02-10T10:53:58.288Z,768
2017-02-10T10:54:58.817Z,784
2017-02-10T10:55:59.351Z,768
2017-02-10T10:57:00.031Z,768
2017-02-10T10:58:00.409Z,784
2017-02-10T10:59:00.938Z,784
2017-02-10T11:00:01.469Z,1008
2017-02-10T11:01:02.145Z,1024
2017-02-10T11:02:02.538Z,928
2017-02-10T11:03:03.059Z,848
2017-02-10T11:04:03.590Z,832
2017-02-10T11:05:04.142Z,832
2017-02-10T11:06:04.805Z,784
2017-02-10T11:07:05.233Z,784
2017-02-10T11:08:05.731Z,816
2017-02-10T11:09:06.260Z,864
2017-02-10T11:10:06.789Z,832
2017-02-10T11:11:07.323Z,800
2017-02-10T11:12:08.001Z,784
2017-02-10T11:13:08.387Z,816
2017-02-10T11:14:08.913Z,800
2017-02-10T11:15:09.449Z,800
2017-02-10T11:16:10.123Z,832
2017-02-10T11:17:10.503Z,816
2017-02-10T11:18:11.038Z,880
2017-02-10T11:19:11.569Z,912
2017-02-10T11:20:12.098Z,768
2017-02-10T11:21:12.781Z,848
2017-02-10T11:22:13.161Z,912
2017-02-10T11:23:13.687Z,864
2017-02-10T11:24:14.222Z,832
2017-02-10T11:25:14.755Z,880
2017-02-10T11:26:15.284Z,912
2017-02-10T11:27:15.809Z,880
2017-02-10T11:28:16.343Z,864
2017-02-10T11:29:16.875Z,864
2017-02-10T11:30:17.406Z,864
2017-02-10T11:31:17.938Z,992
2017-02-10T11:32:18.473Z,1024
2017-02-10T11:33:18.997Z,864
2017-02-10T11:34:19.526Z,1024
2017-02-10T11:35:20.206Z,1200
2017-02-10T11:36:20.585Z,1040
2017-02-10T11:37:21.121Z,944
2017-02-10T11:38:21.645Z,896
2017-02-10T11:39:22.173Z,848
2017-02-10T11:40:22.851Z,848
2017-02-10T11:41:23.231Z,832
2017-02-10T11:42:23.769Z,912
2017-02-10T11:43:24.447Z,832
2017-02-10T11:44:24.828Z,864
2017-02-10T11:45:25.508Z,848
2017-02-10T11:46:25.893Z,832
2017-02-10T11:47:26.578Z,848
2017-02-10T11:48:26.967Z,992
2017-02-10T11:49:27.497Z,944
2017-02-10T11:50:28.030Z,832
2017-02-10T11:51:28.563Z,832
2017-02-10T11:52:29.241Z,816
2017-02-10T11:53:29.633Z,816
2017-02-10T11:54:30.155Z,800
2017-02-10T11:55:30.838Z,800
2017-02-10T11:56:31.220Z,912
2017-02-10T11:57:31.751Z,896
2017-02-10T11:58:32.286Z,832
2017-02-10T11:59:32.817Z,896
2017-02-10T12:00:33.346Z,800
2017-02-10T12:01:33.880Z,912
2017-02-10T12:02:34.413Z,864
2017-02-10T12:03:35.086Z,848
2017-02-10T12:04:35.469Z,896
2017-02-10T12:05:36.148Z,864
2017-02-10T12:06:36.540Z,864
2017-02-10T12:07:37.074Z,832
2017-02-10T12:08:37.594Z,944
2017-02-10T12:09:38.126Z,832
2017-02-10T12:10:38.658Z,784
2017-02-10T12:11:39.336Z,864
2017-02-10T12:12:39.723Z,880
2017-02-10T12:13:40.253Z,864
2017-02-10T12:14:40.776Z,816
2017-02-10T12:15:41.458Z,896
2017-02-10T12:16:41.987Z,880
2017-02-10T12:17:42.515Z,864
2017-02-10T12:18:42.896Z,816
2017-02-10T12:19:43.439Z,832
2017-02-10T12:20:43.964Z,832
2017-02-10T12:21:44.492Z,832
2017-02-10T12:22:45.319Z,784
2017-02-10T12:23:45.547Z,864
2017-02-10T12:24:46.078Z,816
2017-02-10T12:25:46.608Z,816
2017-02-10T12:26:47.136Z,928
2017-02-10T12:27:47.671Z,880
2017-02-10T12:28:48.207Z,848
2017-02-10T12:29:48.735Z,960
2017-02-10T12:30:49.270Z,848
2017-02-10T12:31:49.952Z,816
2017-02-10T12:32:50.338Z,880
2017-02-10T12:33:50.868Z,864
2017-02-10T12:34:51.548Z,832
2017-02-10T12:35:51.928Z,816
2017-02-10T12:36:52.461Z,800
2017-02-10T12:37:52.998Z,816
2017-02-10T12:38:53.522Z,784
2017-02-10T12:39:54.052Z,800
2017-02-10T12:40:54.605Z,832
2017-02-10T12:41:55.113Z,816
2017-02-10T12:42:55.658Z,832
2017-02-10T12:43:56.172Z,768
2017-02-10T12:44:56.706Z,864
2017-02-10T12:45:57.386Z,896
2017-02-10T12:46:57.765Z,864
2017-02-10T12:47:58.299Z,848
2017-02-10T12:48:58.828Z,896
2017-02-10T12:49:59.359Z,912
2017-02-10T12:51:00.034Z,848
2017-02-10T12:52:00.443Z,816
2017-02-10T12:53:01.095Z,816
2017-02-10T12:54:01.488Z,800
2017-02-10T12:55:02.044Z,816
2017-02-10T12:56:02.698Z,816
2017-02-10T12:57:03.077Z,816
2017-02-10T12:58:03.611Z,784
2017-02-10T12:59:04.140Z,784
2017-02-10T13:00:04.689Z,784
2017-02-10T13:01:05.201Z,784
2017-02-10T13:02:05.911Z,816
2017-02-10T13:03:06.409Z,864
2017-02-10T13:04:06.788Z,816
2017-02-10T13:05:07.324Z,816
2017-02-10T13:06:07.852Z,800
2017-02-10T13:07:08.381Z,784
2017-02-10T13:08:08.910Z,784
2017-02-10T13:09:09.447Z,848
2017-02-10T13:10:09.977Z,800
2017-02-10T13:11:10.511Z,816
2017-02-10T13:12:11.048Z,784
2017-02-10T13:13:11.583Z,752
2017-02-10T13:14:12.113Z,848
2017-02-10T13:15:12.649Z,816
2017-02-10T13:16:13.179Z,816
2017-02-10T13:17:13.715Z,816
2017-02-10T13:18:14.250Z,784
2017-02-10T13:19:14.917Z,816
2017-02-10T13:20:15.453Z,864
2017-02-10T13:21:15.835Z,928
2017-02-10T13:22:16.365Z,912
2017-02-10T13:23:16.895Z,944
2017-02-10T13:24:17.428Z,960
2017-02-10T13:25:18.109Z,864
2017-02-10T13:26:18.490Z,832
2017-02-10T13:27:19.023Z,864
2017-02-10T13:28:19.698Z,816
2017-02-10T13:29:20.081Z,848
2017-02-10T13:30:20.608Z,848
2017-02-10T13:31:21.138Z,832
2017-02-10T13:32:21.662Z,832
2017-02-10T13:33:22.200Z,832
2017-02-10T13:34:22.729Z,848
2017-02-10T13:35:23.259Z,1024
2017-02-10T13:36:23.785Z,1040
2017-02-10T13:37:24.320Z,928
2017-02-10T13:38:24.844Z,944
2017-02-10T13:39:25.374Z,800
2017-02-10T13:40:26.056Z,912
2017-02-10T13:41:26.440Z,880
2017-02-10T13:42:27.131Z,848
2017-02-10T13:43:27.502Z,816
2017-02-10T13:44:28.181Z,816
2017-02-10T13:45:28.563Z,880
2017-02-10T13:46:29.090Z,880
2017-02-10T13:47:29.625Z,800
2017-02-10T13:48:30.310Z,864
2017-02-10T13:49:30.710Z,832
2017-02-10T13:50:31.365Z,832
2017-02-10T13:51:31.747Z,848
2017-02-10T13:52:32.284Z,816
2017-02-10T13:53:32.964Z,832
2017-02-10T13:54:33.344Z,816
2017-02-10T13:55:33.882Z,848